Private Wetterstation Wechselburg
Wetterdaten: Woche 15.05.23 - 21.05.23 (KW20)
Datum Zeit Temp. +2m Bodentemp. Temp.+5cm Temp. Wind Windchill X Diff Temp. Feuchte +2m Feuchte +5cm Luftdruck Regen Wind Richtung Sonnenschein Taupunkt Windchill Windben
15.05.2023 00:00 10,4 C 16,7 C 9,7 C 10,1 C 9,5 C 0,0 C 87 % 80 % 1013,7 hPa 0,0 l/m 0,0 km/h (0 Bft) N 0,00 h 8,3 C 9,5 C 0,0 km/h (0 Bft)
15.05.2023 01:00 9,4 C 16,5 C 8,7 C 9,1 C 8,4 C 0,0 C 87 % 80 % 1013,1 hPa 0,0 l/m 0,0 km/h (0 Bft) N 0,00 h 7,5 C 8,4 C 0,0 km/h (0 Bft)
15.05.2023 02:00 8,5 C 16,4 C 7,8 C 8,1 C 7,4 C 0,0 C 88 % 80 % 1012,8 hPa 0,0 l/m 0,0 km/h (0 Bft) N 0,00 h 6,6 C 7,4 C 0,0 km/h (0 Bft)
15.05.2023 03:00 7,3 C 16,2 C 6,7 C 6,9 C 6,2 C 0,0 C 88 % 79 % 1012,5 hPa 0,0 l/m 0,0 km/h (0 Bft) N 0,00 h 5,4 C 6,2 C 0,0 km/h (0 Bft)
15.05.2023 04:00 6,4 C 15,9 C 5,9 C 6,1 C 5,5 C 0,0 C 88 % 78 % 1012,2 hPa 0,0 l/m 0,0 km/h (0 Bft) N 0,00 h 4,5 C 5,5 C 0,0 km/h (0 Bft)
15.05.2023 05:00 5,7 C 15,8 C 5,5 C 5,6 C 5,2 C 0,0 C 88 % 78 % 1011,9 hPa 0,0 l/m 0,0 km/h (0 Bft) N 0,00 h 3,9 C 5,2 C 0,0 km/h (0 Bft)
15.05.2023 06:00 5,6 C 15,7 C 5,6 C 5,6 C 5,5 C 0,1 C 89 % 79 % 1011,9 hPa 0,0 l/m 0,0 km/h (0 Bft) N 0,00 h 3,9 C 5,5 C 0,0 km/h (0 Bft)
15.05.2023 07:00 6,8 C 15,5 C 8,0 C 14,2 C 14,2 C 7,5 C 89 % 86 % 1011,6 hPa 0,0 l/m 0,0 km/h (0 Bft) N 0,83 h 5,0 C 14,2 C 0,0 km/h (0 Bft)
15.05.2023 08:00 9,9 C 15,4 C 10,4 C 16,9 C 16,9 C 7,0 C 88 % 90 % 1011,5 hPa 0,0 l/m 0,0 km/h (0 Bft) N 1,00 h 8,0 C 16,9 C 0,0 km/h (0 Bft)
15.05.2023 09:00 12,1 C 15,2 C 12,0 C 17,6 C 17,6 C 5,6 C 88 % 90 % 1011,1 hPa 0,0 l/m 0,0 km/h (0 Bft) N 1,00 h 10,1 C 17,6 C 0,0 km/h (0 Bft)
15.05.2023 10:00 15,3 C 15,1 C 14,1 C 20,3 C 20,3 C 5,0 C 80 % 75 % 1010,9 hPa 0,0 l/m 0,4 km/h (0 Bft) N 1,00 h 11,9 C 20,3 C 1,5 km/h (1 Bft)
15.05.2023 11:00 17,1 C 15,2 C 16,3 C 24,1 C 24,1 C 7,0 C 71 % 64 % 1010,7 hPa 0,0 l/m 0,2 km/h (0 Bft) N 1,00 h 11,7 C 24,1 C 0,6 km/h (0 Bft)
15.05.2023 12:00 18,5 C 15,3 C 17,8 C 24,2 C 24,2 C 5,7 C 61 % 54 % 1010,2 hPa 0,0 l/m 0,0 km/h (0 Bft) N 1,00 h 10,8 C 24,2 C 0,0 km/h (0 Bft)
15.05.2023 13:00 18,1 C 15,5 C 17,2 C 24,2 C 24,2 C 6,1 C 59 % 54 % 1010,1 hPa 0,0 l/m 0,0 km/h (0 Bft) N 1,00 h 10,0 C 24,2 C 0,0 km/h (0 Bft)
15.05.2023 14:00 18,9 C 15,6 C 18,6 C 24,2 C 24,2 C 5,3 C 57 % 51 % 1009,7 hPa 0,0 l/m 0,0 km/h (0 Bft) N 1,00 h 10,2 C 24,2 C 0,0 km/h (0 Bft)
15.05.2023 15:00 18,5 C 15,7 C 17,0 C 24,2 C 24,2 C 5,7 C 61 % 63 % 1009,4 hPa 0,0 l/m 0,0 km/h (0 Bft) N 1,00 h 10,8 C 24,2 C 0,0 km/h (0 Bft)
15.05.2023 16:00 19,0 C 15,8 C 18,0 C 24,2 C 24,2 C 5,2 C 59 % 62 % 1009,2 hPa 0,0 l/m 0,0 km/h (0 Bft) N 1,00 h 10,8 C 24,2 C 0,0 km/h (0 Bft)
15.05.2023 17:00 18,7 C 16,0 C 17,7 C 24,2 C 24,2 C 5,5 C 56 % 50 % 1009,2 hPa 0,0 l/m 0,0 km/h (0 Bft) N 1,00 h 9,7 C 24,2 C 0,0 km/h (0 Bft)
15.05.2023 18:00 18,2 C 16,1 C 17,4 C 24,2 C 24,2 C 6,0 C 57 % 51 % 1009,7 hPa 0,0 l/m 0,0 km/h (0 Bft) N 1,00 h 9,5 C 24,2 C 0,0 km/h (0 Bft)
15.05.2023 19:00 17,9 C 16,1 C 16,6 C 24,2 C 24,2 C 6,3 C 58 % 51 % 1009,9 hPa 0,0 l/m 0,0 km/h (0 Bft) N 1,00 h 9,4 C 24,2 C 0,0 km/h (0 Bft)
15.05.2023 20:00 15,9 C 16,2 C 14,5 C 24,2 C 24,2 C 8,3 C 62 % 56 % 1010,1 hPa 0,0 l/m 0,0 km/h (0 Bft) N 0,67 h 8,6 C 24,2 C 0,0 km/h (0 Bft)
15.05.2023 21:00 14,9 C 16,2 C 13,7 C 19,4 C 19,1 C 4,6 C 67 % 59 % 1010,8 hPa 0,0 l/m 0,1 km/h (0 Bft) N 0,00 h 8,7 C 19,1 C 0,4 km/h (0 Bft)
15.05.2023 22:00 14,1 C 16,2 C 12,8 C 13,8 C 13,2 C 0,0 C 69 % 61 % 1011,4 hPa 0,0 l/m 0,2 km/h (0 Bft) N 0,00 h 8,5 C 13,2 C 0,3 km/h (0 Bft)
15.05.2023 23:00 12,8 C 16,2 C 11,5 C 12,4 C 11,6 C 0,0 C 73 % 64 % 1011,6 hPa 0,0 l/m 0,0 km/h (0 Bft) N 0,00 h 8,0 C 11,6 C 0,0 km/h (0 Bft)
16.05.2023 00:00 11,8 C 16,2 C 10,6 C 11,4 C 10,6 C 0,0 C 76 % 67 % 1011,7 hPa 0,0 l/m 0,0 km/h (0 Bft) N 0,00 h 7,7 C 10,6 C 0,0 km/h (0 Bft)
16.05.2023 01:00 10,6 C 16,2 C 9,3 C 10,2 C 9,4 C 0,0 C 79 % 71 % 1012,1 hPa 0,0 l/m 0,0 km/h (0 Bft) N 0,00 h 7,1 C 9,4 C 0,0 km/h (0 Bft)
16.05.2023 02:00 9,7 C 16,1 C 8,7 C 9,4 C 8,7 C 0,0 C 82 % 74 % 1012,3 hPa 0,0 l/m 0,0 km/h (0 Bft) N 0,00 h 6,8 C 8,7 C 0,0 km/h (0 Bft)
16.05.2023 03:00 9,1 C 16,1 C 8,1 C 8,7 C 8,0 C 0,0 C 84 % 76 % 1012,8 hPa 0,0 l/m 0,0 km/h (0 Bft) N 0,00 h 6,5 C 8,0 C 0,0 km/h (0 Bft)
16.05.2023 04:00 8,5 C 16,2 C 7,9 C 8,3 C 7,7 C 0,0 C 86 % 77 % 1012,9 hPa 0,0 l/m 0,0 km/h (0 Bft) N 0,00 h 6,3 C 7,7 C 0,0 km/h (0 Bft)
16.05.2023 05:00 8,5 C 16,0 C 8,2 C 8,4 C 8,1 C 0,0 C 87 % 77 % 1013,5 hPa 0,0 l/m 0,0 km/h (0 Bft) N 0,00 h 6,5 C 8,1 C 0,0 km/h (0 Bft)
16.05.2023 06:00 8,8 C 15,6 C 9,1 C 9,3 C 9,3 C 0,5 C 87 % 74 % 1014,5 hPa 0,0 l/m 0,1 km/h (0 Bft) N 0,00 h 6,7 C 9,3 C 0,5 km/h (0 Bft)
16.05.2023 07:00 9,1 C 15,5 C 9,4 C 10,1 C 10,1 C 1,0 C 86 % 70 % 1015,2 hPa 0,0 l/m 0,5 km/h (0 Bft) W 0,00 h 6,9 C 10,1 C 1,6 km/h (1 Bft)
16.05.2023 08:00 9,3 C 15,4 C 9,7 C 10,4 C 10,4 C 1,1 C 84 % 69 % 1015,7 hPa 0,0 l/m 0,0 km/h (0 Bft) N 0,00 h 6,7 C 10,4 C 0,0 km/h (0 Bft)
16.05.2023 09:00 9,7 C 15,2 C 10,1 C 11,1 C 11,1 C 1,4 C 82 % 67 % 1016,0 hPa 0,0 l/m 0,0 km/h (0 Bft) N 0,00 h 6,9 C 11,1 C 0,0 km/h (0 Bft)
16.05.2023 10:00 10,3 C 15,1 C 10,6 C 11,1 C 11,1 C 0,8 C 81 % 66 % 1016,2 hPa 0,0 l/m 0,0 km/h (0 Bft) N 0,00 h 7,3 C 11,1 C 0,0 km/h (0 Bft)
16.05.2023 11:00 11,1 C 15,1 C 11,4 C 11,2 C 11,1 C 0,2 C 80 % 64 % 1016,8 hPa 0,0 l/m 0,0 km/h (0 Bft) N 0,00 h 7,7 C 11,1 C 0,0 km/h (0 Bft)
16.05.2023 12:00 12,3 C 15,0 C 12,6 C 11,9 C 11,1 C 0,0 C 76 % 61 % 1016,9 hPa 0,0 l/m 0,0 km/h (0 Bft) N 0,00 h 8,1 C 11,1 C 0,0 km/h (0 Bft)
16.05.2023 13:00 12,2 C 15,0 C 12,2 C 11,8 C 11,1 C 0,0 C 74 % 59 % 1017,0 hPa 0,0 l/m 0,0 km/h (0 Bft) N 0,00 h 7,7 C 11,1 C 0,0 km/h (0 Bft)
16.05.2023 14:00 11,8 C 15,0 C 11,8 C 11,6 C 11,1 C 0,0 C 74 % 61 % 1017,2 hPa 0,0 l/m 0,0 km/h (0 Bft) N 0,00 h 7,4 C 11,1 C 0,0 km/h (0 Bft)
16.05.2023 15:00 12,3 C 14,9 C 12,7 C 11,9 C 11,1 C 0,0 C 73 % 58 % 1017,8 hPa 0,0 l/m 0,0 km/h (0 Bft) N 0,00 h 7,7 C 11,1 C 0,0 km/h (0 Bft)
16.05.2023 16:00 12,7 C 14,9 C 12,9 C 12,1 C 11,1 C 0,0 C 70 % 53 % 1017,9 hPa 0,0 l/m 0,0 km/h (0 Bft) N 0,00 h 7,3 C 11,1 C 0,0 km/h (0 Bft)
16.05.2023 17:00 13,5 C 14,9 C 13,5 C 12,7 C 11,1 C 0,0 C 65 % 49 % 1018,0 hPa 0,0 l/m 0,0 km/h (0 Bft) N 0,00 h 7,0 C 11,1 C 0,0 km/h (0 Bft)
16.05.2023 18:00 14,0 C 14,9 C 13,5 C 15,6 C 15,4 C 1,6 C 58 % 44 % 1018,0 hPa 0,0 l/m 0,0 km/h (0 Bft) N 0,08 h 5,8 C 15,4 C 0,0 km/h (0 Bft)
16.05.2023 19:00 14,5 C 15,0 C 13,0 C 16,2 C 16,2 C 1,7 C 55 % 43 % 1018,3 hPa 0,0 l/m 0,0 km/h (0 Bft) N 0,17 h 5,6 C 16,2 C 0,0 km/h (0 Bft)
16.05.2023 20:00 12,6 C 15,0 C 10,4 C 12,6 C 12,3 C 0,2 C 59 % 51 % 1018,7 hPa 0,0 l/m 0,0 km/h (0 Bft) N 0,08 h 4,7 C 12,3 C 0,0 km/h (0 Bft)
16.05.2023 21:00 9,4 C 15,1 C 7,7 C 8,7 C 7,2 C 0,0 C 71 % 64 % 1019,0 hPa 0,0 l/m 0,0 km/h (0 Bft) N 0,00 h 4,3 C 7,2 C 0,0 km/h (0 Bft)
16.05.2023 22:00 9,0 C 14,9 C 8,5 C 8,7 C 7,9 C 0,0 C 68 % 52 % 1019,6 hPa 0,0 l/m 0,0 km/h (0 Bft) N 0,00 h 3,5 C 7,9 C 0,0 km/h (0 Bft)
16.05.2023 23:00 8,4 C 14,8 C 7,4 C 7,9 C 7,0 C 0,0 C 67 % 51 % 1020,2 hPa 0,0 l/m 0,0 km/h (0 Bft) N 0,00 h 2,7 C 7,0 C 0,0 km/h (0 Bft)
17.05.2023 00:00 7,6 C 14,6 C 7,0 C 7,2 C 6,3 C 0,0 C 69 % 51 % 1020,4 hPa 0,0 l/m 0,0 km/h (0 Bft) N 0,00 h 2,3 C 6,3 C 0,0 km/h (0 Bft)
17.05.2023 01:00 7,1 C 14,5 C 6,4 C 6,7 C 5,8 C 0,0 C 71 % 52 % 1020,8 hPa 0,0 l/m 0,0 km/h (0 Bft) N 0,00 h 2,1 C 5,8 C 0,0 km/h (0 Bft)
17.05.2023 02:00 5,8 C 14,4 C 5,1 C 5,3 C 4,3 C 0,0 C 75 % 58 % 1021,5 hPa 0,0 l/m 0,0 km/h (0 Bft) N 0,00 h 1,7 C 4,3 C 0,0 km/h (0 Bft)
17.05.2023 03:00 4,6 C 14,3 C 3,5 C 4,0 C 2,8 C 0,0 C 78 % 62 % 1021,7 hPa 0,0 l/m 0,0 km/h (0 Bft) N 0,00 h 1,1 C 2,8 C 0,0 km/h (0 Bft)
17.05.2023 04:00 3,2 C 14,3 C 2,2 C 2,5 C 1,2 C 0,0 C 80 % 68 % 1022,1 hPa 0,0 l/m 0,0 km/h (0 Bft) N 0,00 h 0,0 C 1,2 C 0,0 km/h (0 Bft)
17.05.2023 05:00 2,5 C 14,2 C 1,8 C 2,0 C 1,0 C 0,0 C 82 % 71 % 1022,5 hPa 0,0 l/m 0,0 km/h (0 Bft) N 0,00 h -0,2 C 1,0 C 0,0 km/h (0 Bft)
17.05.2023 06:00 2,4 C 14,1 C 1,9 C 2,2 C 1,5 C 0,0 C 84 % 73 % 1023,1 hPa 0,0 l/m 0,0 km/h (0 Bft) N 0,00 h 0,1 C 1,5 C 0,0 km/h (0 Bft)
17.05.2023 07:00 3,6 C 13,8 C 4,0 C 4,6 C 4,6 C 1,0 C 87 % 77 % 1023,8 hPa 0,0 l/m 0,0 km/h (0 Bft) N 0,00 h 1,6 C 4,6 C 0,0 km/h (0 Bft)
17.05.2023 08:00 6,2 C 13,6 C 7,2 C 10,2 C 10,2 C 4,0 C 88 % 74 % 1024,0 hPa 0,0 l/m 0,0 km/h (0 Bft) N 0,67 h 4,3 C 10,2 C 0,5 km/h (0 Bft)
17.05.2023 09:00 8,8 C 13,4 C 9,3 C 12,1 C 12,1 C 3,3 C 83 % 65 % 1024,3 hPa 0,0 l/m 0,0 km/h (0 Bft) N 0,50 h 6,1 C 12,1 C 0,0 km/h (0 Bft)
17.05.2023 10:00 10,0 C 13,4 C 10,3 C 12,7 C 12,7 C 2,7 C 75 % 55 % 1024,5 hPa 0,0 l/m 0,0 km/h (0 Bft) N 0,17 h 5,8 C 12,7 C 2,1 km/h (1 Bft)
17.05.2023 11:00 10,9 C 13,5 C 11,2 C 14,0 C 14,0 C 3,1 C 66 % 46 % 1024,5 hPa 0,0 l/m 0,3 km/h (0 Bft) N 0,33 h 4,8 C 14,0 C 1,3 km/h (1 Bft)
17.05.2023 12:00 12,1 C 13,5 C 12,3 C 14,4 C 14,4 C 2,3 C 61 % 43 % 1024,7 hPa 0,0 l/m 0,0 km/h (0 Bft) N 0,00 h 4,7 C 14,4 C 0,0 km/h (0 Bft)
17.05.2023 13:00 13,0 C 13,6 C 13,2 C 14,4 C 14,4 C 1,4 C 57 % 41 % 1024,6 hPa 0,0 l/m 0,0 km/h (0 Bft) N 0,00 h 4,6 C 14,4 C 0,0 km/h (0 Bft)
17.05.2023 14:00 13,3 C 13,7 C 14,0 C 14,4 C 14,4 C 1,1 C 54 % 37 % 1024,8 hPa 0,0 l/m 0,0 km/h (0 Bft) N 0,00 h 4,1 C 14,4 C 0,0 km/h (0 Bft)
17.05.2023 15:00 13,4 C 13,7 C 13,9 C 16,7 C 16,7 C 3,3 C 53 % 37 % 1024,7 hPa 0,0 l/m 0,3 km/h (0 Bft) N 0,67 h 4,0 C 16,7 C 1,2 km/h (1 Bft)
17.05.2023 16:00 14,1 C 13,8 C 14,5 C 19,3 C 19,3 C 5,2 C 51 % 36 % 1024,9 hPa 0,0 l/m 0,6 km/h (0 Bft) S 1,00 h 4,0 C 19,3 C 0,9 km/h (0 Bft)
17.05.2023 17:00 14,4 C 14,0 C 15,3 C 17,8 C 17,8 C 3,4 C 48 % 35 % 1025,0 hPa 0,0 l/m 0,4 km/h (0 Bft) N 0,58 h 3,7 C 17,8 C 2,3 km/h (1 Bft)
17.05.2023 18:00 14,7 C 14,1 C 14,1 C 17,3 C 17,3 C 2,6 C 48 % 35 % 1025,1 hPa 0,0 l/m 0,1 km/h (0 Bft) N 0,00 h 3,8 C 17,3 C 0,1 km/h (0 Bft)
17.05.2023 19:00 14,0 C 14,2 C 12,7 C 17,2 C 17,2 C 3,2 C 49 % 36 % 1025,1 hPa 0,0 l/m 0,0 km/h (0 Bft) N 0,92 h 3,4 C 17,2 C 0,0 km/h (0 Bft)
17.05.2023 20:00 12,4 C 14,3 C 10,6 C 17,2 C 17,2 C 4,8 C 56 % 45 % 1025,8 hPa 0,0 l/m 0,0 km/h (0 Bft) N 0,75 h 3,7 C 17,2 C 0,0 km/h (0 Bft)
17.05.2023 21:00 10,3 C 14,4 C 8,9 C 17,2 C 17,2 C 6,9 C 65 % 53 % 1026,2 hPa 0,0 l/m 0,0 km/h (0 Bft) N 0,00 h 3,9 C 17,2 C 0,0 km/h (0 Bft)
17.05.2023 22:00 8,3 C 14,4 C 7,2 C 17,2 C 17,2 C 8,9 C 71 % 58 % 1026,8 hPa 0,0 l/m 0,0 km/h (0 Bft) N 0,00 h 3,4 C 17,2 C 0,0 km/h (0 Bft)
17.05.2023 23:00 7,0 C 14,4 C 6,0 C 17,2 C 17,2 C 10,2 C 76 % 62 % 1027,1 hPa 0,0 l/m 0,0 km/h (0 Bft) N 0,00 h 3,0 C 17,2 C 0,0 km/h (0 Bft)
18.05.2023 00:00 5,9 C 14,4 C 5,0 C 17,2 C 17,2 C 11,3 C 78 % 66 % 1027,2 hPa 0,0 l/m 0,0 km/h (0 Bft) N 0,00 h 2,4 C 17,2 C 0,0 km/h (0 Bft)
18.05.2023 01:00 5,2 C 14,4 C 4,6 C 17,2 C 17,2 C 12,0 C 81 % 70 % 1027,4 hPa 0,0 l/m 0,0 km/h (0 Bft) N 0,00 h 2,1 C 17,2 C 0,0 km/h (0 Bft)
18.05.2023 02:00 4,7 C 14,3 C 4,3 C 17,2 C 17,2 C 12,5 C 83 % 71 % 1027,1 hPa 0,0 l/m 0,0 km/h (0 Bft) N 0,00 h 2,0 C 17,2 C 0,0 km/h (0 Bft)
18.05.2023 03:00 4,3 C 14,2 C 3,8 C 6,1 C 5,4 C 2,1 C 84 % 72 % 1027,4 hPa 0,0 l/m 0,0 km/h (0 Bft) N 0,00 h 1,8 C 5,4 C 0,0 km/h (0 Bft)
18.05.2023 04:00 3,7 C 14,1 C 3,0 C 3,2 C 2,4 C 0,0 C 85 % 71 % 1027,6 hPa 0,0 l/m 0,0 km/h (0 Bft) N 0,00 h 1,4 C 2,4 C 0,0 km/h (0 Bft)
18.05.2023 05:00 2,9 C 13,9 C 2,1 C 2,4 C 1,4 C 0,0 C 85 % 71 % 1028,0 hPa 0,0 l/m 0,0 km/h (0 Bft) N 0,00 h 0,7 C 1,4 C 0,0 km/h (0 Bft)
18.05.2023 06:00 2,7 C 13,8 C 2,2 C 2,5 C 1,9 C 0,0 C 87 % 73 % 1028,2 hPa 0,0 l/m 0,0 km/h (0 Bft) N 0,00 h 0,7 C 1,9 C 0,0 km/h (0 Bft)
18.05.2023 07:00 4,3 C 13,4 C 4,9 C 12,7 C 12,7 C 8,4 C 88 % 77 % 1028,7 hPa 0,0 l/m 0,0 km/h (0 Bft) N 0,83 h 2,4 C 12,7 C 0,0 km/h (0 Bft)
18.05.2023 08:00 8,9 C 13,2 C 7,3 C 19,9 C 19,9 C 11,0 C 83 % 66 % 1028,7 hPa 0,0 l/m 0,0 km/h (0 Bft) N 1,00 h 6,2 C 19,9 C 0,0 km/h (0 Bft)
18.05.2023 09:00 11,5 C 13,2 C 9,8 C 16,9 C 16,9 C 5,4 C 69 % 56 % 1028,7 hPa 0,0 l/m 0,5 km/h (0 Bft) O-NO 0,75 h 6,0 C 16,9 C 1,3 km/h (1 Bft)
18.05.2023 10:00 11,8 C 13,2 C 11,9 C 14,8 C 14,8 C 3,1 C 63 % 45 % 1028,7 hPa 0,0 l/m 1,1 km/h (0 Bft) O-NO 0,08 h 4,8 C 14,8 C 2,7 km/h (1 Bft)
18.05.2023 11:00 12,3 C 13,3 C 12,8 C 14,8 C 14,8 C 2,5 C 60 % 42 % 1028,6 hPa 0,0 l/m 0,0 km/h (0 Bft) N 0,00 h 4,7 C 14,8 C 0,0 km/h (0 Bft)
18.05.2023 12:00 13,0 C 13,4 C 13,4 C 14,8 C 14,8 C 1,8 C 57 % 40 % 1028,6 hPa 0,0 l/m 0,0 km/h (0 Bft) N 0,00 h 4,8 C 14,8 C 0,0 km/h (0 Bft)
18.05.2023 13:00 13,4 C 13,6 C 14,2 C 17,2 C 17,2 C 3,8 C 55 % 39 % 1027,9 hPa 0,0 l/m 0,2 km/h (0 Bft) N 1,00 h 4,6 C 17,2 C 1,2 km/h (1 Bft)
18.05.2023 14:00 14,0 C 13,7 C 15,2 C 17,2 C 17,2 C 3,2 C 54 % 37 % 1027,6 hPa 0,0 l/m 0,0 km/h (0 Bft) N 0,50 h 4,8 C 17,2 C 0,0 km/h (0 Bft)
18.05.2023 15:00 14,7 C 13,9 C 15,1 C 17,2 C 17,2 C 2,5 C 51 % 36 % 1027,5 hPa 0,0 l/m 0,0 km/h (0 Bft) N 0,00 h 4,8 C 17,2 C 0,0 km/h (0 Bft)
18.05.2023 16:00 14,8 C 14,0 C 15,4 C 17,3 C 17,3 C 2,5 C 51 % 36 % 1027,3 hPa 0,0 l/m 0,2 km/h (0 Bft) O-NO 0,08 h 4,9 C 17,3 C 0,0 km/h (0 Bft)
18.05.2023 17:00 14,8 C 14,2 C 15,6 C 17,5 C 17,5 C 2,7 C 51 % 35 % 1027,1 hPa 0,0 l/m 1,7 km/h (1 Bft) O-NO 0,25 h 4,8 C 17,5 C 5,0 km/h (1 Bft)
18.05.2023 18:00 14,6 C 14,3 C 14,9 C 16,0 C 16,0 C 1,4 C 50 % 35 % 1026,9 hPa 0,0 l/m 0,0 km/h (0 Bft) N 0,00 h 4,3 C 16,0 C 0,0 km/h (0 Bft)
18.05.2023 19:00 14,2 C 14,4 C 14,0 C 16,1 C 16,1 C 1,9 C 51 % 36 % 1026,8 hPa 0,0 l/m 0,1 km/h (0 Bft) N 0,42 h 4,2 C 16,1 C 0,0 km/h (0 Bft)
18.05.2023 20:00 13,5 C 14,5 C 12,9 C 15,5 C 15,5 C 2,0 C 55 % 40 % 1026,8 hPa 0,0 l/m 0,0 km/h (0 Bft) N 0,75 h 4,6 C 15,5 C 0,0 km/h (0 Bft)
18.05.2023 21:00 12,5 C 14,5 C 11,5 C 12,3 C 12,0 C 0,0 C 59 % 46 % 1027,1 hPa 0,0 l/m 0,0 km/h (0 Bft) N 0,00 h 4,7 C 12,0 C 0,0 km/h (0 Bft)
18.05.2023 22:00 11,6 C 14,6 C 10,7 C 11,4 C 11,2 C 0,0 C 63 % 51 % 1027,3 hPa 0,0 l/m 0,0 km/h (0 Bft) N 0,00 h 4,9 C 11,2 C 0,0 km/h (0 Bft)
18.05.2023 23:00 10,8 C 14,6 C 10,2 C 10,7 C 10,6 C 0,0 C 67 % 52 % 1027,8 hPa 0,0 l/m 0,0 km/h (0 Bft) N 0,00 h 5,0 C 10,6 C 0,0 km/h (0 Bft)
19.05.2023 00:00 10,2 C 14,6 C 9,5 C 10,0 C 9,7 C 0,0 C 70 % 55 % 1027,8 hPa 0,0 l/m 0,0 km/h (0 Bft) N 0,00 h 4,9 C 9,7 C 0,0 km/h (0 Bft)
19.05.2023 01:00 9,7 C 14,6 C 9,3 C 9,6 C 9,6 C 0,0 C 72 % 57 % 1027,3 hPa 0,0 l/m 0,0 km/h (0 Bft) N 0,00 h 4,9 C 9,6 C 0,0 km/h (0 Bft)
19.05.2023 02:00 9,7 C 14,5 C 9,5 C 9,7 C 9,7 C 0,0 C 72 % 56 % 1026,9 hPa 0,0 l/m 0,0 km/h (0 Bft) N 0,00 h 4,9 C 9,7 C 0,0 km/h (0 Bft)
19.05.2023 03:00 9,5 C 14,4 C 9,2 C 9,5 C 9,3 C 0,0 C 73 % 57 % 1026,6 hPa 0,0 l/m 0,0 km/h (0 Bft) N 0,00 h 5,0 C 9,3 C 0,0 km/h (0 Bft)
19.05.2023 04:00 9,2 C 14,4 C 8,9 C 9,1 C 9,0 C 0,0 C 74 % 58 % 1026,9 hPa 0,0 l/m 0,0 km/h (0 Bft) N 0,00 h 4,8 C 9,0 C 0,0 km/h (0 Bft)
19.05.2023 05:00 9,0 C 14,3 C 8,5 C 8,9 C 8,6 C 0,0 C 75 % 59 % 1026,9 hPa 0,0 l/m 0,0 km/h (0 Bft) N 0,00 h 4,8 C 8,6 C 0,0 km/h (0 Bft)
19.05.2023 06:00 8,5 C 14,3 C 8,0 C 8,5 C 8,4 C 0,2 C 78 % 62 % 1027,0 hPa 0,0 l/m 0,0 km/h (0 Bft) N 0,00 h 4,8 C 8,4 C 0,0 km/h (0 Bft)
19.05.2023 07:00 9,7 C 14,2 C 10,0 C 11,9 C 11,9 C 2,2 C 78 % 59 % 1026,8 hPa 0,0 l/m 0,0 km/h (0 Bft) N 0,25 h 6,1 C 11,9 C 0,0 km/h (0 Bft)
19.05.2023 08:00 11,9 C 14,2 C 11,8 C 16,1 C 16,1 C 4,2 C 72 % 54 % 1026,8 hPa 0,0 l/m 0,5 km/h (0 Bft) N 0,92 h 7,0 C 16,1 C 1,1 km/h (1 Bft)
19.05.2023 09:00 12,6 C 14,1 C 12,5 C 15,8 C 15,8 C 3,2 C 70 % 54 % 1026,5 hPa 0,0 l/m 0,7 km/h (0 Bft) O-NO 0,50 h 7,2 C 15,8 C 1,7 km/h (1 Bft)
19.05.2023 10:00 13,4 C 14,2 C 13,6 C 17,4 C 17,4 C 4,0 C 68 % 51 % 1026,4 hPa 0,0 l/m 1,9 km/h (1 Bft) O-NO 1,00 h 7,6 C 17,4 C 3,4 km/h (1 Bft)
19.05.2023 11:00 14,2 C 14,3 C 14,5 C 17,5 C 17,5 C 3,3 C 66 % 49 % 1025,9 hPa 0,0 l/m 3,6 km/h (1 Bft) O-NO 0,33 h 7,8 C 17,5 C 6,1 km/h (2 Bft)
19.05.2023 12:00 15,7 C 14,4 C 15,9 C 19,8 C 19,8 C 4,1 C 60 % 45 % 1025,3 hPa 0,0 l/m 3,1 km/h (1 Bft) O-NO 0,83 h 7,9 C 19,8 C 5,4 km/h (1 Bft)
19.05.2023 13:00 16,9 C 14,6 C 16,9 C 21,4 C 21,4 C 4,5 C 55 % 42 % 1025,0 hPa 0,0 l/m 3,9 km/h (1 Bft) O-NO 1,00 h 7,8 C 21,4 C 7,0 km/h (2 Bft)
19.05.2023 14:00 16,7 C 14,8 C 17,7 C 20,3 C 20,3 C 3,6 C 55 % 42 % 1024,8 hPa 0,0 l/m 5,4 km/h (1 Bft) O-NO 0,67 h 7,8 C 20,3 C 6,6 km/h (2 Bft)
19.05.2023 15:00 17,3 C 15,0 C 18,2 C 21,9 C 21,9 C 4,7 C 57 % 43 % 1024,6 hPa 0,0 l/m 5,2 km/h (1 Bft) O-NO 1,00 h 8,6 C 21,9 C 6,1 km/h (2 Bft)
19.05.2023 16:00 17,1 C 15,2 C 17,8 C 20,9 C 20,9 C 3,8 C 58 % 43 % 1024,4 hPa 0,0 l/m 5,8 km/h (2 Bft) O-NO 0,92 h 8,8 C 20,9 C 6,5 km/h (2 Bft)
19.05.2023 17:00 16,9 C 15,4 C 17,5 C 19,1 C 19,1 C 2,3 C 61 % 45 % 1024,6 hPa 0,0 l/m 6,3 km/h (2 Bft) O-NO 0,08 h 9,2 C 19,1 C 8,6 km/h (2 Bft)
19.05.2023 18:00 16,4 C 15,5 C 16,7 C 17,9 C 17,9 C 1,6 C 62 % 47 % 1024,6 hPa 0,0 l/m 5,5 km/h (1 Bft) NO 0,00 h 9,1 C 17,9 C 6,8 km/h (2 Bft)
19.05.2023 19:00 15,7 C 15,6 C 15,9 C 17,0 C 17,0 C 1,3 C 65 % 51 % 1024,3 hPa 0,0 l/m 6,7 km/h (2 Bft) O-NO 0,00 h 9,2 C 17,0 C 10,1 km/h (2 Bft)
19.05.2023 20:00 14,4 C 15,7 C 14,1 C 14,5 C 14,5 C 0,2 C 68 % 54 % 1024,6 hPa 0,0 l/m 4,0 km/h (1 Bft) O-NO 0,00 h 8,6 C 14,5 C 5,2 km/h (1 Bft)
19.05.2023 21:00 13,1 C 15,7 C 12,7 C 13,0 C 12,8 C 0,0 C 72 % 59 % 1024,6 hPa 0,0 l/m 3,7 km/h (1 Bft) O-NO 0,00 h 8,2 C 12,8 C 4,7 km/h (1 Bft)
19.05.2023 22:00 12,2 C 15,7 C 11,5 C 12,0 C 11,5 C 0,0 C 75 % 62 % 1024,8 hPa 0,0 l/m 0,1 km/h (0 Bft) N 0,00 h 7,9 C 11,5 C 0,0 km/h (0 Bft)
19.05.2023 23:00 12,4 C 15,7 C 12,3 C 12,5 C 12,5 C 0,1 C 77 % 63 % 1024,7 hPa 0,0 l/m 2,6 km/h (1 Bft) O-NO 0,00 h 8,5 C 12,5 C 4,0 km/h (1 Bft)
20.05.2023 00:00 12,4 C 15,6 C 12,2 C 12,4 C 12,4 C 0,1 C 77 % 64 % 1024,6 hPa 0,0 l/m 4,0 km/h (1 Bft) O-NO 0,00 h 8,5 C 12,4 C 4,7 km/h (1 Bft)
20.05.2023 01:00 12,0 C 15,6 C 11,8 C 12,0 C 11,9 C 0,0 C 79 % 65 % 1024,3 hPa 0,0 l/m 0,4 km/h (0 Bft) O-NO 0,00 h 8,4 C 11,9 C 0,0 km/h (0 Bft)
20.05.2023 02:00 11,5 C 15,5 C 11,2 C 11,4 C 11,1 C 0,0 C 80 % 67 % 1024,4 hPa 0,0 l/m 0,1 km/h (0 Bft) N 0,00 h 8,2 C 11,1 C 0,3 km/h (0 Bft)
20.05.2023 03:00 11,5 C 15,5 C 11,4 C 11,5 C 11,5 C 0,0 C 82 % 69 % 1024,0 hPa 0,0 l/m 1,6 km/h (1 Bft) NO 0,00 h 8,5 C 11,5 C 2,8 km/h (1 Bft)
20.05.2023 04:00 11,0 C 15,5 C 10,7 C 10,9 C 10,7 C 0,0 C 83 % 72 % 1023,8 hPa 0,0 l/m 2,9 km/h (1 Bft) O-NO 0,00 h 8,1 C 10,7 C 4,0 km/h (1 Bft)
20.05.2023 05:00 10,3 C 15,6 C 10,0 C 10,1 C 9,8 C 0,0 C 85 % 74 % 1023,6 hPa 0,0 l/m 0,8 km/h (0 Bft) O-NO 0,00 h 7,8 C 9,8 C 1,1 km/h (0 Bft)
20.05.2023 06:00 10,5 C 15,5 C 10,6 C 10,8 C 10,8 C 0,4 C 86 % 74 % 1023,6 hPa 0,0 l/m 1,8 km/h (1 Bft) O-NO 0,00 h 8,2 C 10,8 C 2,6 km/h (1 Bft)
20.05.2023 07:00 11,0 C 15,4 C 11,3 C 11,9 C 11,9 C 0,8 C 86 % 73 % 1023,4 hPa 0,0 l/m 3,8 km/h (1 Bft) O-NO 0,00 h 8,8 C 11,9 C 5,4 km/h (1 Bft)
20.05.2023 08:00 12,0 C 15,2 C 12,4 C 13,8 C 13,8 C 1,8 C 84 % 71 % 1023,2 hPa 0,0 l/m 4,2 km/h (1 Bft) O-NO 0,00 h 9,4 C 13,8 C 7,1 km/h (2 Bft)
20.05.2023 09:00 12,9 C 15,2 C 13,4 C 15,2 C 15,2 C 2,3 C 82 % 68 % 1022,5 hPa 0,0 l/m 6,8 km/h (2 Bft) O-NO 0,00 h 9,9 C 15,2 C 8,5 km/h (2 Bft)
20.05.2023 10:00 14,0 C 15,2 C 14,5 C 17,4 C 17,4 C 3,4 C 80 % 66 % 1022,5 hPa 0,0 l/m 6,4 km/h (2 Bft) O-NO 0,50 h 10,7 C 17,4 C 9,6 km/h (2 Bft)
20.05.2023 11:00 15,3 C 15,3 C 15,5 C 17,9 C 17,9 C 2,6 C 77 % 64 % 1021,8 hPa 0,0 l/m 7,0 km/h (2 Bft) O-NO 0,25 h 11,3 C 17,9 C 8,6 km/h (2 Bft)
20.05.2023 12:00 17,1 C 15,4 C 17,4 C 21,6 C 21,6 C 4,5 C 74 % 62 % 1021,3 hPa 0,0 l/m 4,4 km/h (1 Bft) O-NO 0,92 h 12,4 C 21,6 C 5,0 km/h (1 Bft)
20.05.2023 13:00 18,8 C 15,6 C 18,6 C 23,3 C 23,3 C 4,5 C 70 % 60 % 1020,6 hPa 0,0 l/m 4,6 km/h (1 Bft) O-NO 1,00 h 13,3 C 23,3 C 4,9 km/h (1 Bft)
20.05.2023 14:00 20,0 C 15,8 C 20,8 C 24,5 C 24,5 C 4,5 C 68 % 57 % 1019,9 hPa 0,0 l/m 5,8 km/h (2 Bft) O-NO 1,00 h 13,9 C 24,5 C 8,2 km/h (2 Bft)
20.05.2023 15:00 20,8 C 16,1 C 21,2 C 24,1 C 24,1 C 3,4 C 66 % 57 % 1019,2 hPa 0,0 l/m 5,6 km/h (1 Bft) NO 0,42 h 14,2 C 24,1 C 6,3 km/h (2 Bft)
20.05.2023 16:00 21,3 C 16,4 C 21,8 C 25,4 C 25,4 C 4,1 C 66 % 56 % 1018,3 hPa 0,0 l/m 2,9 km/h (1 Bft) O-NO 0,92 h 14,5 C 25,4 C 4,3 km/h (1 Bft)
20.05.2023 17:00 21,3 C 16,6 C 21,6 C 23,1 C 23,1 C 1,7 C 64 % 54 % 1017,9 hPa 0,0 l/m 8,2 km/h (2 Bft) O-NO 0,00 h 14,3 C 23,1 C 10,7 km/h (2 Bft)
20.05.2023 18:00 20,6 C 16,8 C 20,6 C 21,5 C 21,5 C 0,9 C 65 % 55 % 1017,2 hPa 0,0 l/m 8,7 km/h (2 Bft) O-NO 0,00 h 13,8 C 21,5 C 11,1 km/h (2 Bft)
20.05.2023 19:00 19,9 C 17,0 C 19,6 C 20,2 C 20,2 C 0,4 C 66 % 56 % 1017,6 hPa 0,0 l/m 6,1 km/h (2 Bft) O-NO 0,00 h 13,2 C 20,2 C 7,2 km/h (2 Bft)
20.05.2023 20:00 18,8 C 17,0 C 18,4 C 18,8 C 18,8 C 0,1 C 69 % 60 % 1017,8 hPa 0,0 l/m 5,8 km/h (2 Bft) O-NO 0,00 h 12,9 C 18,8 C 7,1 km/h (2 Bft)
20.05.2023 21:00 17,5 C 17,1 C 17,0 C 17,3 C 17,0 C 0,0 C 72 % 63 % 1018,4 hPa 0,0 l/m 5,2 km/h (1 Bft) O-NO 0,00 h 12,3 C 17,0 C 6,3 km/h (2 Bft)
20.05.2023 22:00 16,1 C 17,2 C 15,2 C 15,8 C 15,2 C 0,0 C 75 % 67 % 1018,3 hPa 0,0 l/m 1,4 km/h (1 Bft) O-NO 0,00 h 11,6 C 15,2 C 2,2 km/h (1 Bft)
20.05.2023 23:00 15,1 C 17,3 C 14,4 C 14,9 C 14,4 C 0,0 C 79 % 71 % 1018,2 hPa 0,0 l/m 2,0 km/h (1 Bft) NO 0,00 h 11,5 C 14,4 C 2,6 km/h (1 Bft)
21.05.2023 00:00 14,3 C 17,2 C 13,6 C 14,0 C 13,5 C 0,0 C 81 % 74 % 1018,2 hPa 0,0 l/m 1,6 km/h (1 Bft) NO 0,00 h 11,0 C 13,5 C 1,8 km/h (1 Bft)
21.05.2023 01:00 13,2 C 17,3 C 12,3 C 12,9 C 12,3 C 0,0 C 83 % 75 % 1018,1 hPa 0,0 l/m 0,1 km/h (0 Bft) N 0,00 h 10,3 C 12,3 C 0,1 km/h (0 Bft)
21.05.2023 02:00 12,5 C 17,2 C 11,8 C 12,2 C 11,6 C 0,0 C 85 % 77 % 1017,6 hPa 0,0 l/m 0,1 km/h (0 Bft) N 0,00 h 10,0 C 11,6 C 0,3 km/h (0 Bft)
21.05.2023 03:00 12,0 C 17,1 C 11,1 C 11,7 C 11,0 C 0,0 C 86 % 78 % 1017,0 hPa 0,0 l/m 0,0 km/h (0 Bft) N 0,00 h 9,7 C 11,0 C 0,0 km/h (0 Bft)
21.05.2023 04:00 11,9 C 17,0 C 11,3 C 11,7 C 11,3 C 0,0 C 87 % 79 % 1016,8 hPa 0,0 l/m 0,1 km/h (0 Bft) N 0,00 h 9,8 C 11,3 C 0,0 km/h (0 Bft)
21.05.2023 05:00 11,8 C 17,0 C 11,3 C 11,6 C 11,2 C 0,0 C 87 % 78 % 1016,8 hPa 0,0 l/m 0,0 km/h (0 Bft) N 0,00 h 9,7 C 11,2 C 0,1 km/h (0 Bft)
21.05.2023 06:00 11,9 C 16,9 C 11,9 C 12,3 C 12,3 C 0,4 C 87 % 78 % 1016,9 hPa 0,0 l/m 0,0 km/h (0 Bft) N 0,00 h 9,8 C 12,3 C 0,0 km/h (0 Bft)
21.05.2023 07:00 12,9 C 16,7 C 13,2 C 15,0 C 15,0 C 2,1 C 88 % 76 % 1016,9 hPa 0,0 l/m 0,0 km/h (0 Bft) N 0,00 h 11,0 C 15,0 C 0,0 km/h (0 Bft)
21.05.2023 08:00 16,1 C 16,5 C 15,2 C 23,9 C 23,9 C 7,8 C 85 % 77 % 1016,8 hPa 0,0 l/m 0,0 km/h (0 Bft) N 1,00 h 13,6 C 23,9 C 0,0 km/h (0 Bft)
21.05.2023 09:00 19,5 C 16,5 C 18,5 C 25,0 C 25,0 C 5,5 C 77 % 73 % 1016,5 hPa 0,0 l/m 1,2 km/h (1 Bft) N-NO 0,75 h 15,3 C 25,0 C 2,5 km/h (1 Bft)
21.05.2023 10:00 22,5 C 16,5 C 22,0 C 25,4 C 25,4 C 2,9 C 66 % 63 % 1016,3 hPa 0,0 l/m 5,4 km/h (1 Bft) NO 0,33 h 15,8 C 25,4 C 8,3 km/h (2 Bft)
21.05.2023 11:00 24,3 C 16,7 C 23,7 C 26,6 C 26,6 C 2,2 C 55 % 52 % 1016,1 hPa 0,0 l/m 7,4 km/h (2 Bft) NO 0,25 h 14,6 C 26,6 C 11,3 km/h (2 Bft)
21.05.2023 12:00 25,4 C 17,0 C 24,5 C 29,1 C 29,1 C 3,8 C 49 % 47 % 1016,1 hPa 0,0 l/m 6,6 km/h (2 Bft) O-NO 0,83 h 13,8 C 29,1 C 8,7 km/h (2 Bft)
21.05.2023 13:00 26,6 C 17,2 C 25,8 C 31,1 C 31,1 C 4,5 C 46 % 44 % 1015,9 hPa 0,0 l/m 5,6 km/h (1 Bft) O-NO 1,00 h 13,9 C 31,1 C 8,7 km/h (2 Bft)
21.05.2023 14:00 26,8 C 17,5 C 27,3 C 30,8 C 30,8 C 4,0 C 45 % 44 % 1015,9 hPa 0,0 l/m 5,6 km/h (1 Bft) NO 1,00 h 13,9 C 30,8 C 8,7 km/h (2 Bft)
21.05.2023 15:00 26,8 C 17,9 C 27,3 C 30,9 C 30,9 C 4,1 C 45 % 42 % 1015,8 hPa 0,0 l/m 6,9 km/h (2 Bft) O-NO 1,00 h 14,0 C 30,9 C 9,8 km/h (2 Bft)
21.05.2023 16:00 25,8 C 18,1 C 25,7 C 28,2 C 28,2 C 2,4 C 51 % 45 % 1015,2 hPa 0,0 l/m 7,7 km/h (2 Bft) O-NO 0,00 h 14,7 C 28,2 C 9,9 km/h (2 Bft)
21.05.2023 17:00 25,1 C 18,3 C 25,2 C 26,7 C 26,7 C 1,5 C 54 % 48 % 1015,6 hPa 0,0 l/m 7,2 km/h (2 Bft) NO 0,00 h 15,2 C 26,7 C 9,7 km/h (2 Bft)
21.05.2023 18:00 24,9 C 18,5 C 24,8 C 26,1 C 26,1 C 1,3 C 55 % 49 % 1015,3 hPa 0,0 l/m 6,4 km/h (2 Bft) O-NO 0,00 h 15,2 C 26,1 C 8,0 km/h (2 Bft)
21.05.2023 19:00 23,4 C 18,6 C 23,0 C 23,8 C 23,8 C 0,4 C 58 % 52 % 1015,1 hPa 0,0 l/m 5,2 km/h (1 Bft) O-NO 0,00 h 14,7 C 23,8 C 6,2 km/h (2 Bft)
21.05.2023 20:00 22,0 C 18,7 C 21,4 C 21,9 C 21,7 C 0,0 C 61 % 55 % 1015,3 hPa 0,0 l/m 3,0 km/h (1 Bft) O-NO 0,00 h 14,2 C 21,7 C 3,5 km/h (1 Bft)
21.05.2023 21:00 20,6 C 18,7 C 19,9 C 20,5 C 20,1 C 0,0 C 63 % 55 % 1015,5 hPa 0,0 l/m 1,9 km/h (1 Bft) O-NO 0,00 h 13,2 C 20,1 C 1,9 km/h (1 Bft)
21.05.2023 22:00 19,0 C 18,7 C 17,7 C 18,8 C 18,2 C 0,0 C 65 % 58 % 1015,6 hPa 0,0 l/m 0,6 km/h (0 Bft) O-NO 0,00 h 12,3 C 18,2 C 0,7 km/h (0 Bft)
21.05.2023 23:00 16,9 C 18,6 C 15,3 C 16,6 C 15,8 C 0,0 C 72 % 65 % 1015,8 hPa 0,0 l/m 0,0 km/h (0 Bft) N 0,00 h 11,8 C 15,8 C 0,0 km/h (0 Bft)
Min-Datum _ 17.05.23 18.05.23 17.05.23 17.05.23 17.05.23 15.05.23 21.05.23 17.05.23 15.05.23 - 15.05.23 - - 17.05.23 17.05.23 15.05.23
_ Min-Zeit 05:45 08:20 05:40 05:40 05:40 00:00 14:55 18:50 16:45 - 00:00 - - 05:45 05:40 00:00
Minimum _ 2,3 C 13,2 C 1,4 C 1,8 C 0,7 C 0,0 C 42 % 33 % 1009,1 hPa - 0,0 km/h (0 Bft) - - -0,3 C 0,7 C 0,0 km/h (0 Bft)
Max-Datum _ 21.05.23 21.05.23 21.05.23 21.05.23 21.05.23 18.05.23 15.05.23 15.05.23 18.05.23 15.05.23 20.05.23 - 15.05.23 21.05.23 21.05.23 20.05.23
_ Max-Zeit 14:01 20:10 15:05 14:01 14:01 07:55 05:40 07:50 08:45 00:00 17:30 - 08:37 10:45 14:01 18:00
Maximum _ 27,1 C 18,7 C 28,5 C 32,0 C 32,0 C 13,0 C 89 % 90 % 1029,0 hPa 0,0 l/m 10,1 km/h
O-NO (2 Bft)
- 0,12 h 16,5 C 32,0 C 24,0 km/h
O-NO (4 Bft)
Durchschnitt _ 13,0 C 15,4 C 12,7 C 15,2 C 14,9 C 2,3 C 71 % 59 % 1020,3 hPa #0,0 l/m 1,4 km/h (1 Bft) O-NO #43:45 h 7,6 C 14,9 C 2,0 km/h (1 Bft)
2023 www.wetterstation-wechselburg.de